createdAt,value
2018-06-16T00:00:35.667Z,100655.80
2018-06-16T00:01:39.087Z,100651.65
2018-06-16T00:02:42.862Z,100657.17
2018-06-16T00:03:46.263Z,100655.22
2018-06-16T00:04:49.683Z,100645.43
2018-06-16T00:06:55.536Z,100651.88
2018-06-16T00:07:58.977Z,100646.81
2018-06-16T00:09:02.495Z,100650.50
2018-06-16T00:10:06.071Z,100654.41
2018-06-16T00:11:09.663Z,100654.41
2018-06-16T00:12:13.092Z,100653.84
2018-06-16T00:13:16.519Z,100657.41
2018-06-16T00:14:19.934Z,100657.98
2018-06-16T00:15:23.371Z,100655.80
2018-06-16T00:16:26.799Z,100655.22
2018-06-16T00:17:30.263Z,100656.60
2018-06-16T00:18:33.691Z,100657.98
2018-06-16T00:19:37.120Z,100659.62
2018-06-16T00:20:40.532Z,100659.37
2018-06-16T00:21:43.928Z,100660.17
2018-06-16T00:22:47.339Z,100656.03
2018-06-16T00:23:50.782Z,100652.91
2018-06-16T00:24:58.426Z,100656.86
2018-06-16T00:26:01.842Z,100658.79
2018-06-16T00:27:05.275Z,100657.98
2018-06-16T00:28:08.705Z,100663.77
2018-06-16T00:29:12.118Z,100659.05
2018-06-16T00:30:15.532Z,100659.94
2018-06-16T00:31:18.962Z,100654.64
2018-06-16T00:32:22.367Z,100654.64
2018-06-16T00:33:25.779Z,100660.44
2018-06-16T00:34:29.199Z,100648.20
2018-06-16T00:35:32.611Z,100656.03
2018-06-16T00:36:36.020Z,100655.22
2018-06-16T00:37:39.439Z,100654.41
2018-06-16T00:38:42.897Z,100654.64
2018-06-16T00:39:46.327Z,100651.65
2018-06-16T00:40:49.733Z,100650.95
2018-06-16T00:41:53.163Z,100651.65
2018-06-16T00:42:56.570Z,100645.78
2018-06-16T00:43:59.995Z,100653.03
2018-06-16T00:45:03.450Z,100651.08
2018-06-16T00:46:06.879Z,100648.54
2018-06-16T00:47:10.274Z,100654.41
2018-06-16T00:48:13.700Z,100653.27
2018-06-16T00:49:17.138Z,100652.57
2018-06-16T00:50:20.570Z,100655.80
2018-06-16T00:51:23.971Z,100651.77
2018-06-16T00:52:27.393Z,100653.84
2018-06-16T00:53:30.806Z,100651.08
2018-06-16T00:54:34.276Z,100653.84
2018-06-16T00:55:37.675Z,100650.50
2018-06-16T00:56:41.094Z,100648.20
2018-06-16T00:57:47.039Z,100655.22
2018-06-16T00:58:50.481Z,100651.08
2018-06-16T00:59:53.902Z,100651.88
2018-06-16T01:00:57.323Z,100650.27
2018-06-16T01:02:00.758Z,100654.10
2018-06-16T01:03:04.200Z,100647.73
2018-06-16T01:04:07.647Z,100645.89
2018-06-16T01:05:11.339Z,100651.88
2018-06-16T01:06:14.747Z,100647.73
2018-06-16T01:07:18.155Z,100651.65
2018-06-16T01:08:22.382Z,100651.88
2018-06-16T01:09:25.787Z,100646.35
2018-06-16T01:10:29.227Z,100651.34
2018-06-16T01:11:32.635Z,100651.08
2018-06-16T01:12:36.086Z,100647.50
2018-06-16T01:13:39.508Z,100648.31
2018-06-16T01:14:42.914Z,100646.81
2018-06-16T01:16:48.812Z,100656.60
2018-06-16T01:17:52.221Z,100641.52
2018-06-16T01:18:55.775Z,100651.88
2018-06-16T01:19:59.956Z,100648.08
2018-06-16T01:21:03.395Z,100648.31
2018-06-16T01:22:06.838Z,100651.88
2018-06-16T01:23:10.250Z,100646.13
2018-06-16T01:24:13.683Z,100651.88
2018-06-16T01:25:17.094Z,100657.98
2018-06-16T01:26:20.515Z,100643.24
2018-06-16T01:27:23.924Z,100651.65
2018-06-16T01:28:27.338Z,100656.03
2018-06-16T01:29:30.747Z,100646.58
2018-06-16T01:30:34.159Z,100654.64
2018-06-16T01:31:37.601Z,100651.88
2018-06-16T01:32:40.996Z,100646.93
2018-06-16T01:33:44.399Z,100641.05
2018-06-16T01:34:47.983Z,100649.12
2018-06-16T01:35:51.392Z,100644.97
2018-06-16T01:36:54.840Z,100645.55
2018-06-16T01:37:58.269Z,100643.94
2018-06-16T01:39:01.672Z,100648.89
2018-06-16T01:41:07.495Z,100636.91
2018-06-16T01:42:11.147Z,100645.55
2018-06-16T01:43:14.554Z,100639.91
2018-06-16T01:44:17.979Z,100641.98
2018-06-16T01:45:21.415Z,100647.73
2018-06-16T01:46:24.839Z,100641.41
2018-06-16T01:47:28.271Z,100639.21
2018-06-16T01:48:31.667Z,100646.35
2018-06-16T01:50:37.499Z,100643.36
2018-06-16T01:51:40.909Z,100640.59
2018-06-16T01:52:44.338Z,100635.53
2018-06-16T01:53:47.809Z,100643.36
2018-06-16T01:54:51.218Z,100642.20
2018-06-16T01:55:54.678Z,100646.35
2018-06-16T01:56:58.146Z,100643.59
2018-06-16T01:58:01.917Z,100640.83
2018-06-16T01:59:05.343Z,100647.73
2018-06-16T02:00:08.802Z,100637.60
2018-06-16T02:01:12.247Z,100644.16
2018-06-16T02:02:15.666Z,100638.52
2018-06-16T02:03:19.098Z,100640.59
2018-06-16T02:04:22.498Z,100640.36
2018-06-16T02:05:26.118Z,100643.36
2018-06-16T02:06:29.531Z,100644.73
2018-06-16T02:07:33.031Z,100648.08
2018-06-16T02:08:36.455Z,100646.93
2018-06-16T02:09:40.019Z,100648.31
2018-06-16T02:10:43.432Z,100646.13
2018-06-16T02:11:46.844Z,100643.94
2018-06-16T02:12:50.262Z,100649.69
2018-06-16T02:13:53.700Z,100644.73
2018-06-16T02:14:57.096Z,100648.89
2018-06-16T02:16:00.507Z,100644.73
2018-06-16T02:17:04.047Z,100646.93
2018-06-16T02:18:07.528Z,100648.89
2018-06-16T02:19:10.955Z,100641.05
2018-06-16T02:20:14.361Z,100643.36
2018-06-16T02:21:18.013Z,100648.89
2018-06-16T02:22:21.420Z,100650.50
2018-06-16T02:23:24.854Z,100653.27
2018-06-16T02:24:28.301Z,100647.50
2018-06-16T02:25:31.706Z,100645.89
2018-06-16T02:26:35.119Z,100646.13
2018-06-16T02:27:38.530Z,100643.36
2018-06-16T02:28:41.931Z,100649.12
2018-06-16T02:29:45.362Z,100648.89
2018-06-16T02:30:48.767Z,100638.06
2018-06-16T02:31:52.167Z,100645.43
2018-06-16T02:32:55.789Z,100654.41
2018-06-16T02:33:59.234Z,100651.65
2018-06-16T02:35:02.704Z,100646.70
2018-06-16T02:36:06.551Z,100648.89
2018-06-16T02:37:09.979Z,100645.09
2018-06-16T02:38:13.418Z,100646.70
2018-06-16T02:39:16.834Z,100639.91
2018-06-16T02:40:20.288Z,100645.09
2018-06-16T02:41:23.692Z,100646.70
2018-06-16T02:42:27.103Z,100647.50
2018-06-16T02:43:30.509Z,100645.31
2018-06-16T02:44:33.919Z,100637.60
2018-06-16T02:45:37.347Z,100643.13
2018-06-16T02:46:40.751Z,100643.94
2018-06-16T02:47:44.182Z,100638.06
2018-06-16T02:48:47.598Z,100644.51
2018-06-16T02:49:51.039Z,100643.94
2018-06-16T02:50:54.507Z,100644.73
2018-06-16T02:51:57.957Z,100645.31
2018-06-16T02:53:01.386Z,100636.22
2018-06-16T02:54:04.809Z,100642.55
2018-06-16T02:55:08.274Z,100640.36
2018-06-16T02:56:11.703Z,100649.46
2018-06-16T02:57:15.112Z,100644.51
2018-06-16T02:58:18.593Z,100645.89
2018-06-16T02:59:21.998Z,100643.13
2018-06-16T03:00:25.666Z,100641.17
2018-06-16T03:01:29.138Z,100643.70
2018-06-16T03:02:32.525Z,100647.84
2018-06-16T03:03:35.953Z,100651.42
2018-06-16T03:04:39.332Z,100651.42
2018-06-16T03:05:42.751Z,100649.46
2018-06-16T03:06:46.150Z,100648.66
2018-06-16T03:07:49.931Z,100651.42
2018-06-16T03:08:53.371Z,100652.80
2018-06-16T03:09:57.189Z,100655.80
2018-06-16T03:11:00.663Z,100648.66
2018-06-16T03:12:04.115Z,100652.80
2018-06-16T03:13:07.555Z,100651.42
2018-06-16T03:14:10.975Z,100649.23
2018-06-16T03:15:14.412Z,100643.70
2018-06-16T03:16:17.801Z,100641.52
2018-06-16T03:17:21.220Z,100643.70
2018-06-16T03:18:24.610Z,100645.09
2018-06-16T03:19:27.989Z,100634.48
2018-06-16T03:20:31.406Z,100640.13
2018-06-16T03:21:34.811Z,100645.89
2018-06-16T03:22:38.224Z,100648.42
2018-06-16T03:23:41.617Z,100645.43
2018-06-16T03:24:45.025Z,100645.66
2018-06-16T03:25:48.466Z,100645.89
2018-06-16T03:26:51.875Z,100647.84
2018-06-16T03:27:55.305Z,100647.05
2018-06-16T03:28:58.687Z,100649.81
2018-06-16T03:30:02.091Z,100645.66
2018-06-16T03:31:05.494Z,100648.42
2018-06-16T03:32:08.898Z,100646.23
2018-06-16T03:33:12.309Z,100651.42
2018-06-16T03:34:15.733Z,100651.19
2018-06-16T03:35:19.110Z,100656.38
2018-06-16T03:36:22.496Z,100653.95
2018-06-16T03:37:25.884Z,100650.38
2018-06-16T03:38:29.324Z,100647.62
2018-06-16T03:39:32.710Z,100652.57
2018-06-16T03:40:36.110Z,100639.78
2018-06-16T03:41:39.504Z,100647.05
2018-06-16T03:42:42.964Z,100643.02
2018-06-16T03:43:46.479Z,100649.00
2018-06-16T03:44:49.890Z,100642.55
2018-06-16T03:45:53.562Z,100653.72
2018-06-16T03:46:56.984Z,100649.81
2018-06-16T03:48:00.420Z,100654.76
2018-06-16T03:49:03.908Z,100651.77
2018-06-16T03:50:07.339Z,100657.29
2018-06-16T03:51:10.749Z,100648.42
2018-06-16T03:52:14.125Z,100651.77
2018-06-16T03:53:17.529Z,100650.61
2018-06-16T03:54:20.940Z,100647.62
2018-06-16T03:55:24.422Z,100649.81
2018-06-16T03:56:27.828Z,100647.05
2018-06-16T03:57:31.229Z,100649.81
2018-06-16T03:58:34.628Z,100646.23
2018-06-16T03:59:38.045Z,100647.05
2018-06-16T04:00:41.430Z,100645.66
2018-06-16T04:01:44.810Z,100646.81
2018-06-16T04:02:48.235Z,100636.67
2018-06-16T04:03:51.605Z,100644.05
2018-06-16T04:04:55.004Z,100643.70
2018-06-16T04:05:58.472Z,100644.05
2018-06-16T04:07:01.882Z,100644.28
2018-06-16T04:08:05.521Z,100642.67
2018-06-16T04:09:10.362Z,100645.09
2018-06-16T04:10:13.784Z,100641.28
2018-06-16T04:11:17.150Z,100645.66
2018-06-16T04:12:21.200Z,100649.23
2018-06-16T04:13:24.597Z,100638.75
2018-06-16T04:14:28.002Z,100639.67
2018-06-16T04:15:31.432Z,100640.70
2018-06-16T04:16:34.835Z,100648.20
2018-06-16T04:17:38.254Z,100643.47
2018-06-16T04:18:41.640Z,100642.90
2018-06-16T04:19:45.014Z,100641.28
2018-06-16T04:20:48.419Z,100641.28
2018-06-16T04:21:51.827Z,100644.05
2018-06-16T04:22:55.228Z,100645.43
2018-06-16T04:23:58.699Z,100640.83
2018-06-16T04:25:02.079Z,100639.33
2018-06-16T04:26:05.714Z,100645.43
2018-06-16T04:27:09.432Z,100641.28
2018-06-16T04:28:12.834Z,100641.86
2018-06-16T04:29:16.244Z,100641.28
2018-06-16T04:30:19.644Z,100642.67
2018-06-16T04:31:23.075Z,100641.28
2018-06-16T04:32:26.492Z,100647.62
2018-06-16T04:33:29.895Z,100642.90
2018-06-16T04:34:33.604Z,100648.42
2018-06-16T04:35:37.005Z,100640.13
2018-06-16T04:36:40.429Z,100644.05
2018-06-16T04:37:43.823Z,100644.05
2018-06-16T04:38:47.224Z,100636.45
2018-06-16T04:39:50.613Z,100639.33
2018-06-16T04:40:54.037Z,100644.86
2018-06-16T04:41:57.454Z,100643.13
2018-06-16T04:43:00.849Z,100644.05
2018-06-16T04:44:04.244Z,100646.23
2018-06-16T04:45:07.652Z,100641.52
2018-06-16T04:46:11.254Z,100642.20
2018-06-16T04:47:14.674Z,100643.47
2018-06-16T04:48:18.102Z,100649.81
2018-06-16T04:49:21.469Z,100642.20
2018-06-16T04:50:24.888Z,100644.05
2018-06-16T04:51:28.329Z,100644.28
2018-06-16T04:52:31.742Z,100644.86
2018-06-16T04:53:35.162Z,100646.23
2018-06-16T04:54:38.542Z,100649.58
2018-06-16T04:55:41.952Z,100648.42
2018-06-16T04:56:45.356Z,100643.47
2018-06-16T04:57:48.780Z,100652.57
2018-06-16T04:58:52.300Z,100645.43
2018-06-16T04:59:55.708Z,100646.47
2018-06-16T05:00:59.084Z,100642.90
2018-06-16T05:02:02.477Z,100646.23
2018-06-16T05:03:05.930Z,100645.66
2018-06-16T05:04:09.327Z,100633.69
2018-06-16T05:05:12.728Z,100637.37
2018-06-16T05:06:16.133Z,100639.33
2018-06-16T05:07:19.512Z,100638.17
2018-06-16T05:08:22.944Z,100642.67
2018-06-16T05:09:26.370Z,100640.13
2018-06-16T05:10:29.782Z,100640.70
2018-06-16T05:11:33.191Z,100638.52
2018-06-16T05:12:36.612Z,100634.84
2018-06-16T05:13:40.017Z,100635.76
2018-06-16T05:14:43.431Z,100640.13
2018-06-16T05:15:46.862Z,100637.37
2018-06-16T05:16:50.308Z,100640.13
2018-06-16T05:17:53.758Z,100642.32
2018-06-16T05:18:57.182Z,100641.52
2018-06-16T05:20:00.580Z,100637.14
2018-06-16T05:21:03.985Z,100625.62
2018-06-16T05:22:07.423Z,100636.80
2018-06-16T05:23:10.849Z,100635.18
2018-06-16T05:24:14.275Z,100632.99
2018-06-16T05:25:17.759Z,100631.84
2018-06-16T05:26:21.210Z,100638.75
2018-06-16T05:27:24.620Z,100629.77
2018-06-16T05:28:28.005Z,100636.80
2018-06-16T05:29:31.422Z,100635.98
2018-06-16T05:30:34.802Z,100638.75
2018-06-16T05:31:38.196Z,100639.79
2018-06-16T05:32:41.982Z,100640.36
2018-06-16T05:33:45.382Z,100641.75
2018-06-16T05:34:48.811Z,100647.50
2018-06-16T05:35:52.205Z,100638.64
2018-06-16T05:36:55.606Z,100654.18
2018-06-16T05:37:59.014Z,100647.16
2018-06-16T05:39:02.496Z,100651.42
2018-06-16T05:40:06.001Z,100652.23
2018-06-16T05:41:09.641Z,100653.27
2018-06-16T05:42:13.072Z,100650.61
2018-06-16T05:43:16.481Z,100650.03
2018-06-16T05:44:19.866Z,100645.20
2018-06-16T05:45:23.268Z,100648.42
2018-06-16T05:46:26.663Z,100648.31
2018-06-16T05:47:30.091Z,100653.03
2018-06-16T05:48:33.472Z,100654.41
2018-06-16T05:49:36.883Z,100652.45
2018-06-16T05:50:40.318Z,100655.80
2018-06-16T05:51:43.777Z,100665.70
2018-06-16T05:52:47.197Z,100671.23
2018-06-16T05:53:50.668Z,100669.84
2018-06-16T05:54:54.317Z,100666.28
2018-06-16T05:55:57.756Z,100667.66
2018-06-16T05:57:01.170Z,100663.52
2018-06-16T05:58:04.618Z,100664.58
2018-06-16T05:59:08.009Z,100667.34
2018-06-16T06:00:11.406Z,100665.70
2018-06-16T06:01:14.829Z,100671.23
2018-06-16T06:02:18.265Z,100666.54
2018-06-16T06:03:21.656Z,100675.64
2018-06-16T06:04:25.047Z,100672.30
2018-06-16T06:05:28.467Z,100663.77
2018-06-16T06:06:31.866Z,100664.31
2018-06-16T06:07:35.267Z,100674.48
2018-06-16T06:08:38.664Z,100660.52
2018-06-16T06:09:42.065Z,100665.96
2018-06-16T06:10:45.513Z,100659.05
2018-06-16T06:11:49.030Z,100660.66
2018-06-16T06:12:52.396Z,100662.05
2018-06-16T06:13:55.786Z,100659.86
2018-06-16T06:14:59.198Z,100672.30
2018-06-16T06:16:02.633Z,100675.29
2018-06-16T06:17:06.037Z,100668.38
2018-06-16T06:18:09.468Z,100667.34
2018-06-16T06:19:12.909Z,100668.16
2018-06-16T06:20:16.341Z,100665.96
2018-06-16T06:21:19.994Z,100668.95
2018-06-16T06:22:23.428Z,100674.48
2018-06-16T06:23:26.871Z,100671.72
2018-06-16T06:24:30.343Z,100674.48
2018-06-16T06:25:33.739Z,100673.68
2018-06-16T06:26:37.132Z,100675.64
2018-06-16T06:27:40.607Z,100678.63
2018-06-16T06:28:44.023Z,100669.53
2018-06-16T06:29:47.431Z,100667.34
2018-06-16T06:30:51.053Z,100671.95
2018-06-16T06:31:54.545Z,100672.53
2018-06-16T06:32:57.963Z,100679.20
2018-06-16T06:34:01.331Z,100677.25
2018-06-16T06:35:04.772Z,100677.83
2018-06-16T06:36:08.304Z,100677.25
2018-06-16T06:37:11.781Z,100671.48
2018-06-16T06:38:15.192Z,100680.02
2018-06-16T06:39:18.639Z,100678.63
2018-06-16T06:40:22.075Z,100678.63
2018-06-16T06:41:25.457Z,100684.39
2018-06-16T06:42:28.869Z,100677.25
2018-06-16T06:43:32.280Z,100680.82
2018-06-16T06:44:35.696Z,100680.02
2018-06-16T06:45:39.119Z,100676.45
2018-06-16T06:46:42.513Z,100684.39
2018-06-16T06:47:45.948Z,100684.39
2018-06-16T06:48:49.372Z,100684.63
2018-06-16T06:49:52.772Z,100689.34
2018-06-16T06:50:56.587Z,100681.28
2018-06-16T06:51:59.984Z,100681.86
2018-06-16T06:53:03.387Z,100683.24
2018-06-16T06:54:06.845Z,100681.05
2018-06-16T06:55:10.249Z,100689.92
2018-06-16T06:56:13.638Z,100691.19
2018-06-16T06:57:17.006Z,100680.09
2018-06-16T06:58:20.414Z,100687.16
2018-06-16T06:59:23.842Z,100688.19
2018-06-16T07:00:27.262Z,100682.44
2018-06-16T07:01:30.666Z,100684.63
2018-06-16T07:02:34.088Z,100689.00
2018-06-16T07:03:37.469Z,100681.97
2018-06-16T07:04:40.872Z,100686.23
2018-06-16T07:05:44.389Z,100689.23
2018-06-16T07:06:47.762Z,100678.14
2018-06-16T07:07:51.263Z,100687.84
2018-06-16T07:08:54.676Z,100687.84
2018-06-16T07:09:58.080Z,100687.05
2018-06-16T07:11:01.474Z,100686.23
2018-06-16T07:12:04.887Z,100682.89
2018-06-16T07:13:08.282Z,100686.70
2018-06-16T07:14:11.704Z,100678.17
2018-06-16T07:15:15.156Z,100676.56
2018-06-16T07:16:18.538Z,100686.47
2018-06-16T07:17:21.944Z,100669.53
2018-06-16T07:18:25.332Z,100684.74
2018-06-16T07:19:28.715Z,100675.64
2018-06-16T07:20:32.137Z,100671.49
2018-06-16T07:21:35.549Z,100674.26
2018-06-16T07:22:38.922Z,100673.11
2018-06-16T07:23:42.348Z,100680.59
2018-06-16T07:24:46.026Z,100671.49
2018-06-16T07:25:49.414Z,100675.88
2018-06-16T07:26:52.856Z,100669.42
2018-06-16T07:27:56.262Z,100672.53
2018-06-16T07:28:59.683Z,100675.88
2018-06-16T07:30:03.097Z,100673.11
2018-06-16T07:31:06.518Z,100667.58
2018-06-16T07:32:09.935Z,100668.96
2018-06-16T07:33:13.413Z,100665.62
2018-06-16T07:34:16.834Z,100667.81
2018-06-16T07:35:20.280Z,100669.19
2018-06-16T07:36:23.688Z,100668.38
2018-06-16T07:37:27.076Z,100664.81
2018-06-16T07:38:30.477Z,100669.19
2018-06-16T07:39:33.873Z,100666.42
2018-06-16T07:40:37.284Z,100661.47
2018-06-16T07:41:40.672Z,100668.61
2018-06-16T07:42:44.070Z,100666.66
2018-06-16T07:43:47.472Z,100663.89
2018-06-16T07:44:50.874Z,100663.89
2018-06-16T07:45:54.340Z,100662.52
2018-06-16T07:46:57.729Z,100662.74
2018-06-16T07:48:01.163Z,100659.05
2018-06-16T07:49:04.571Z,100664.70
2018-06-16T07:50:08.937Z,100665.51
2018-06-16T07:51:12.330Z,100667.70
2018-06-16T07:52:15.748Z,100663.31
2018-06-16T07:53:19.168Z,100669.88
2018-06-16T07:54:22.556Z,100658.13
2018-06-16T07:55:25.969Z,100667.34
2018-06-16T07:56:29.407Z,100662.05
2018-06-16T07:57:32.997Z,100657.33
2018-06-16T07:58:36.380Z,100667.34
2018-06-16T07:59:39.754Z,100662.97
2018-06-16T08:00:43.122Z,100660.20
2018-06-16T08:01:46.543Z,100665.39
2018-06-16T08:02:49.958Z,100662.39
2018-06-16T08:03:53.374Z,100661.81
2018-06-16T08:04:56.768Z,100661.81
2018-06-16T08:06:00.201Z,100663.78
2018-06-16T08:07:03.617Z,100669.54
2018-06-16T08:08:07.042Z,100663.20
2018-06-16T08:09:11.167Z,100662.62
2018-06-16T08:10:14.781Z,100663.20
2018-06-16T08:11:18.193Z,100666.20
2018-06-16T08:12:21.619Z,100666.20
2018-06-16T08:13:25.019Z,100666.55
2018-06-16T08:14:28.487Z,100662.97
2018-06-16T08:15:31.899Z,100668.16
2018-06-16T08:16:35.417Z,100667.00
2018-06-16T08:17:38.805Z,100657.55
2018-06-16T08:18:42.219Z,100668.96
2018-06-16T08:19:45.637Z,100664.23
2018-06-16T08:20:49.010Z,100664.81
2018-06-16T08:21:52.424Z,100665.62
2018-06-16T08:22:55.867Z,100665.39
2018-06-16T08:23:59.246Z,100665.05
2018-06-16T08:25:02.627Z,100662.86
2018-06-16T08:26:06.131Z,100663.66
2018-06-16T08:27:09.573Z,100667.58
2018-06-16T08:28:12.996Z,100663.92
2018-06-16T08:29:16.407Z,100666.42
2018-06-16T08:30:19.798Z,100668.88
2018-06-16T08:31:23.223Z,100664.23
2018-06-16T08:32:26.612Z,100667.81
2018-06-16T08:33:30.175Z,100668.07
2018-06-16T08:34:33.569Z,100668.65
2018-06-16T08:35:36.990Z,100668.07
2018-06-16T08:36:40.549Z,100670.84
2018-06-16T08:37:43.955Z,100667.49
2018-06-16T08:38:47.391Z,100665.88
2018-06-16T08:39:50.784Z,100668.88
2018-06-16T08:40:54.198Z,100667.81
2018-06-16T08:41:57.590Z,100672.22
2018-06-16T08:43:00.999Z,100668.65
2018-06-16T08:44:04.471Z,100673.02
2018-06-16T08:45:17.509Z,100665.73
2018-06-16T08:46:21.038Z,100667.49
2018-06-16T08:47:24.446Z,100671.41
2018-06-16T08:48:27.901Z,100665.97
2018-06-16T08:49:31.305Z,100661.97
2018-06-16T08:50:34.705Z,100664.50
2018-06-16T08:51:38.125Z,100661.02
2018-06-16T08:52:41.521Z,100658.48
2018-06-16T08:53:44.918Z,100663.34
2018-06-16T08:54:48.382Z,100659.78
2018-06-16T08:55:51.791Z,100661.16
2018-06-16T08:56:55.186Z,100658.39
2018-06-16T08:57:58.563Z,100665.53
2018-06-16T08:59:01.934Z,100660.58
2018-06-16T09:00:05.703Z,100660.01
2018-06-16T09:01:09.084Z,100658.63
2018-06-16T09:02:12.497Z,100663.58
2018-06-16T09:03:15.947Z,100655.86
2018-06-16T09:04:19.432Z,100657.02
2018-06-16T09:05:22.864Z,100665.77
2018-06-16T09:06:35.593Z,100660.58
2018-06-16T09:07:48.416Z,100664.39
2018-06-16T09:09:01.970Z,100663.00
2018-06-16T09:10:17.144Z,100661.97
2018-06-16T09:11:25.816Z,100654.70
2018-06-16T09:12:38.494Z,100655.86
2018-06-16T09:13:42.212Z,100660.01
2018-06-16T09:14:45.596Z,100658.86
2018-06-16T09:15:49.020Z,100664.39
2018-06-16T09:16:52.468Z,100662.20
2018-06-16T09:17:55.884Z,100656.66
2018-06-16T09:18:59.561Z,100657.70
2018-06-16T09:20:29.909Z,100653.90
2018-06-16T09:21:52.159Z,100656.09
2018-06-16T09:22:55.614Z,100652.86
2018-06-16T09:23:59.060Z,100659.08
2018-06-16T09:25:02.461Z,100661.05
2018-06-16T09:26:05.865Z,100657.70
2018-06-16T09:27:09.263Z,100655.74
2018-06-16T09:28:12.680Z,100656.55
2018-06-16T09:29:16.077Z,100657.36
2018-06-16T09:30:19.556Z,100658.97
2018-06-16T09:31:23.089Z,100660.92
2018-06-16T09:34:15.666Z,100658.39
2018-06-16T09:35:27.800Z,100658.63
2018-06-16T09:36:38.055Z,100657.01
2018-06-16T09:37:41.601Z,100657.01
2018-06-16T09:38:45.074Z,100657.23
2018-06-16T09:39:48.494Z,100651.13
2018-06-16T09:40:51.922Z,100648.59
2018-06-16T09:41:55.326Z,100652.98
2018-06-16T09:42:58.746Z,100647.22
2018-06-16T09:44:02.205Z,100645.25
2018-06-16T09:45:05.651Z,100645.26
2018-06-16T09:46:09.071Z,100640.30
2018-06-16T09:47:12.477Z,100643.87
2018-06-16T09:48:15.897Z,100647.45
2018-06-16T09:49:19.331Z,100646.64
2018-06-16T09:50:22.767Z,100648.25
2018-06-16T09:51:26.149Z,100643.06
2018-06-16T09:52:29.585Z,100643.30
2018-06-16T09:53:32.979Z,100651.59
2018-06-16T09:54:36.383Z,100653.78
2018-06-16T09:55:39.783Z,100656.78
2018-06-16T09:56:43.209Z,100651.02
2018-06-16T09:57:46.652Z,100655.97
2018-06-16T09:58:50.252Z,100649.17
2018-06-16T09:59:53.687Z,100651.02
2018-06-16T10:00:57.088Z,100651.02
2018-06-16T10:02:00.518Z,100651.25
2018-06-16T10:03:03.994Z,100648.94
2018-06-16T10:04:07.433Z,100647.33
2018-06-16T10:05:10.865Z,100650.90
2018-06-16T10:06:14.500Z,100648.71
2018-06-16T10:07:17.920Z,100638.11
2018-06-16T10:08:21.397Z,100645.14
2018-06-16T10:09:24.873Z,100645.37
2018-06-16T10:10:28.309Z,100642.83
2018-06-16T10:11:31.687Z,100645.59
2018-06-16T10:12:35.084Z,100648.36
2018-06-16T10:13:38.476Z,100642.29
2018-06-16T10:14:41.864Z,100640.06
2018-06-16T10:15:45.356Z,100645.28
2018-06-16T10:16:48.816Z,100642.29
2018-06-16T10:18:03.741Z,100645.28
2018-06-16T10:19:08.390Z,100641.71
2018-06-16T10:20:11.789Z,100634.42
2018-06-16T10:21:15.300Z,100634.22
2018-06-16T10:22:18.729Z,100637.56
2018-06-16T10:23:22.144Z,100635.61
2018-06-16T10:24:25.549Z,100642.52
2018-06-16T10:25:28.976Z,100639.75
2018-06-16T10:26:32.413Z,100640.55
2018-06-16T10:27:36.424Z,100636.41
2018-06-16T10:28:39.832Z,100636.64
2018-06-16T10:29:44.144Z,100631.11
2018-06-16T10:30:47.803Z,100635.83
2018-06-16T10:31:51.258Z,100631.69
2018-06-16T10:32:54.668Z,100634.45
2018-06-16T10:33:58.057Z,100626.73
2018-06-16T10:35:01.481Z,100630.53
2018-06-16T10:36:04.944Z,100627.77
2018-06-16T10:37:08.380Z,100623.62
2018-06-16T10:38:11.750Z,100618.78
2018-06-16T10:39:15.154Z,100630.76
2018-06-16T10:40:18.563Z,100622.46
2018-06-16T10:41:21.954Z,100622.46
2018-06-16T10:42:25.472Z,100621.08
2018-06-16T10:43:28.885Z,100622.46
2018-06-16T10:44:32.299Z,100614.05
2018-06-16T10:45:35.688Z,100627.68
2018-06-16T10:46:39.096Z,100624.66
2018-06-16T10:47:42.508Z,100625.72
2018-06-16T10:48:45.931Z,100624.08
2018-06-16T10:49:49.336Z,100627.10
2018-06-16T10:50:52.725Z,100618.89
2018-06-16T10:51:56.151Z,100625.14
2018-06-16T10:52:59.579Z,100624.56
2018-06-16T10:54:02.986Z,100618.80
2018-06-16T10:55:06.613Z,100623.18
2018-06-16T10:56:10.019Z,100623.18
2018-06-16T10:57:13.411Z,100615.11
2018-06-16T10:58:16.841Z,100615.11
2018-06-16T10:59:20.234Z,100613.73
2018-06-16T11:00:23.649Z,100616.50
2018-06-16T11:01:27.056Z,100615.92
2018-06-16T11:02:30.462Z,100616.72
2018-06-16T11:03:33.924Z,100610.62
2018-06-16T11:04:37.323Z,100611.19
2018-06-16T11:05:40.728Z,100610.16
2018-06-16T11:06:44.131Z,100616.72
2018-06-16T11:07:47.553Z,100612.00
2018-06-16T11:08:50.954Z,100613.38
2018-06-16T11:09:54.348Z,100610.62
2018-06-16T11:10:58.274Z,100617.18
2018-06-16T11:12:01.729Z,100605.20
2018-06-16T11:13:05.471Z,100602.44
2018-06-16T11:14:09.296Z,100608.66
2018-06-16T11:15:12.676Z,100617.41
2018-06-16T11:16:16.248Z,100608.30
2018-06-16T11:17:19.641Z,100607.50
2018-06-16T11:18:23.043Z,100608.88
2018-06-16T11:19:26.466Z,100601.28
2018-06-16T11:20:29.874Z,100610.27
2018-06-16T11:21:33.303Z,100606.92
2018-06-16T11:22:36.727Z,100600.48
2018-06-16T11:23:40.135Z,100602.20
2018-06-16T11:24:43.553Z,100606.34
2018-06-16T11:25:46.958Z,100608.53
2018-06-16T11:26:50.471Z,100608.53
2018-06-16T11:27:53.858Z,100606.34
2018-06-16T11:28:57.219Z,100603.58
2018-06-16T11:30:00.666Z,100595.63
2018-06-16T11:31:04.073Z,100599.43
2018-06-16T11:32:07.480Z,100601.05
2018-06-16T11:33:10.883Z,100594.38
2018-06-16T11:34:14.303Z,100596.89
2018-06-16T11:35:17.695Z,100599.08
2018-06-16T11:36:21.075Z,100590.45
2018-06-16T11:37:24.446Z,100594.13
2018-06-16T11:38:29.512Z,100589.98
2018-06-16T11:39:33.004Z,100591.94
2018-06-16T11:40:36.506Z,100590.20
2018-06-16T11:41:40.199Z,100581.00
2018-06-16T11:42:43.590Z,100587.70
2018-06-16T11:43:46.973Z,100570.63
2018-06-16T11:44:50.421Z,100583.55
2018-06-16T11:45:53.879Z,100581.02
2018-06-16T11:46:57.273Z,100579.98
2018-06-16T11:48:00.665Z,100577.30
2018-06-16T11:49:04.101Z,100583.20
2018-06-16T11:50:07.903Z,100579.86
2018-06-16T11:51:11.435Z,100585.39
2018-06-16T11:52:14.821Z,100576.37
2018-06-16T11:53:18.194Z,100584.81
2018-06-16T11:54:21.606Z,100578.12
2018-06-16T11:55:25.031Z,100575.70
2018-06-16T11:56:28.432Z,100575.94
2018-06-16T11:57:31.897Z,100571.79
2018-06-16T11:58:35.271Z,100572.37
2018-06-16T11:59:38.642Z,100567.64
2018-06-16T12:00:42.047Z,100563.48
2018-06-16T12:01:45.488Z,100561.88
2018-06-16T12:02:48.862Z,100559.34
2018-06-16T12:03:52.242Z,100565.10
2018-06-16T12:04:55.642Z,100551.74
2018-06-16T12:05:59.041Z,100559.34
2018-06-16T12:07:02.521Z,100559.56
2018-06-16T12:08:05.987Z,100564.30
2018-06-16T12:09:11.571Z,100550.94
2018-06-16T12:10:14.999Z,100549.20
2018-06-16T12:11:18.414Z,100549.78
2018-06-16T12:12:21.839Z,100558.19